Time;durP1;ratioP1;P1;durP2;ratioP2;P2;SDS_P1;SDS_P2;PMS_P1;PMS_P2;Temp;Humidity;BMP_temperature;BMP_pressure;BME280_temperature;BME280_humidity;BME280_pressure;Samples;Min_cycle;Max_cycle;Signal;HPM_P1;HPM_P2
2022/01/13 00:34:53;;;;;;;26.83;17.33;;;1.40;99.90;;;;;;5003400;23;20237;-88
2022/01/13 00:37:20;;;;;;;25.27;17.20;;;1.80;99.90;;;;;;4993989;28;20260;-88
2022/01/13 00:39:47;;;;;;;26.88;16.92;;;1.60;99.90;;;;;;4988716;28;20558;-88
2022/01/13 00:42:17;;;;;;;25.20;16.35;;;1.90;99.90;;;;;;4988225;28;20642;-87
2022/01/13 00:44:45;;;;;;;26.95;17.98;;;1.50;99.90;;;;;;4987354;28;20232;-89
2022/01/13 00:47:12;;;;;;;27.27;16.95;;;1.70;99.90;;;;;;4987175;28;20216;-89
2022/01/13 00:49:39;;;;;;;28.42;17.23;;;1.70;99.90;;;;;;4986394;28;20669;-87
2022/01/13 00:52:07;;;;;;;29.80;18.88;;;1.20;99.90;;;;;;4987043;28;20243;-89
2022/01/13 00:54:35;;;;;;;24.95;17.27;;;1.70;99.90;;;;;;4984420;28;20252;-89
2022/01/13 00:57:02;;;;;;;27.60;17.50;;;1.70;99.90;;;;;;4984660;28;20235;-89
2022/01/13 00:59:30;;;;;;;26.90;18.08;;;1.60;99.90;;;;;;4983999;28;20629;-89
2022/01/13 01:01:57;;;;;;;29.10;19.15;;;1.80;99.90;;;;;;4983433;28;20240;-88
2022/01/13 01:04:25;;;;;;;28.67;17.83;;;1.70;99.90;;;;;;4983388;28;20268;-89
2022/01/13 01:06:52;;;;;;;28.73;18.55;;;1.50;99.90;;;;;;4983522;28;20666;-88
2022/01/13 01:09:30;;;;;;;24.70;16.50;;;1.30;99.90;;;;;;4986010;28;20233;-87
2022/01/13 01:11:56;;;;;;;26.58;17.45;;;1.70;99.90;;;;;;4980031;28;20600;-88
2022/01/13 01:14:25;;;;;;;26.77;18.92;;;1.70;99.90;;;;;;4982269;28;20287;-89
2022/01/13 01:16:51;;;;;;;25.05;16.10;;;1.90;99.90;;;;;;4982370;28;20207;-87
2022/01/13 01:19:26;;;;;;;25.83;16.98;;;2.00;99.90;;;;;;4982078;28;20217;-87
2022/01/13 01:25:00;;;;;;;29.40;18.35;;;1.90;99.90;;;;;;4972479;28;20224;-88
2022/01/13 01:27:31;;;;;;;36.42;21.42;;;1.90;99.90;;;;;;4982070;28;20193;-88
2022/01/13 01:30:03;;;;;;;28.10;18.20;;;2.00;99.90;;;;;;4983437;28;20207;-87
2022/01/13 01:32:33;;;;;;;29.55;19.10;;;1.90;99.90;;;;;;4982648;28;20295;-87
2022/01/13 01:35:02;;;;;;;28.23;19.30;;;2.00;99.90;;;;;;4981182;28;20327;-86
2022/01/13 01:37:30;;;;;;;29.48;18.42;;;1.70;99.90;;;;;;4983585;28;20228;-90
2022/01/13 01:40:00;;;;;;;29.33;18.52;;;2.10;99.90;;;;;;4990507;28;20209;-89
2022/01/13 01:42:28;;;;;;;26.00;18.25;;;2.00;99.90;;;;;;4988233;28;20219;-89
2022/01/13 01:44:58;;;;;;;28.17;17.98;;;2.00;99.90;;;;;;4984996;28;20591;-89
2022/01/13 01:47:28;;;;;;;27.85;20.15;;;2.10;99.90;;;;;;4986014;28;20220;-88
2022/01/13 01:49:59;;;;;;;28.83;17.60;;;2.20;99.90;;;;;;4988878;28;20613;-89
2022/01/13 01:52:27;;;;;;;30.27;19.83;;;2.20;99.90;;;;;;4987604;28;20296;-89
2022/01/13 01:54:55;;;;;;;31.55;19.33;;;2.40;99.90;;;;;;4986040;28;20231;-88
2022/01/13 01:57:24;;;;;;;29.80;18.95;;;2.30;99.90;;;;;;4985997;28;20205;-89
2022/01/13 01:59:53;;;;;;;24.90;17.60;;;2.30;99.90;;;;;;4986322;28;20216;-88
2022/01/13 02:02:21;;;;;;;29.42;18.05;;;2.50;99.90;;;;;;4985815;28;20279;-89
2022/01/13 02:04:48;;;;;;;31.25;18.90;;;2.50;99.90;;;;;;4994302;28;20244;-87
2022/01/13 02:07:18;;;;;;;27.60;19.00;;;2.20;99.90;;;;;;4993778;28;20205;-88
2022/01/13 02:09:50;;;;;;;28.20;18.90;;;2.10;99.90;;;;;;4986035;28;20228;-89
2022/01/13 02:12:30;;;;;;;29.35;19.73;;;2.30;99.90;;;;;;4994428;28;20212;-88
2022/01/13 02:15:05;;;;;;;30.77;19.30;;;2.30;99.90;;;;;;4994454;28;20224;-90
2022/01/13 02:17:34;;;;;;;27.75;19.40;;;2.20;99.90;;;;;;4989888;28;20211;-90
2022/01/13 02:20:04;;;;;;;29.92;18.40;;;2.10;99.90;;;;;;4987717;28;20222;-90
2022/01/13 02:22:32;;;;;;;28.92;19.33;;;2.30;99.90;;;;;;4991382;28;20212;-89
2022/01/13 02:24:59;;;;;;;28.95;19.73;;;2.20;99.90;;;;;;4994422;28;20726;-89
2022/01/13 02:27:26;;;;;;;31.65;19.13;;;2.20;99.90;;;;;;4998666;28;20209;-88
2022/01/13 02:29:53;;;;;;;30.80;19.02;;;2.30;99.90;;;;;;4990530;28;20248;-88
2022/01/13 02:32:20;;;;;;;28.48;19.25;;;2.40;99.90;;;;;;4992327;28;20243;-89
2022/01/13 02:34:48;;;;;;;30.40;18.67;;;2.40;99.90;;;;;;4992962;28;20275;-89
2022/01/13 02:37:15;;;;;;;28.67;19.67;;;2.60;99.90;;;;;;4988900;28;20189;-89
2022/01/13 02:39:44;;;;;;;33.13;22.05;;;2.40;99.90;;;;;;4986704;28;20212;-88
2022/01/13 02:42:14;;;;;;;32.92;21.00;;;2.50;99.90;;;;;;4986250;28;20208;-88
2022/01/13 02:44:49;;;;;;;30.60;19.92;;;2.70;99.90;;;;;;4987456;28;20240;-89
2022/01/13 02:47:37;;;;;;;32.58;20.65;;;2.70;99.90;;;;;;4990651;28;20203;-89
2022/01/13 02:50:05;;;;;;;31.80;19.52;;;2.50;99.90;;;;;;4996575;28;20201;-88
2022/01/13 02:52:32;;;;;;;32.28;19.40;;;2.40;99.90;;;;;;4999727;28;20208;-90
2022/01/13 02:55:00;;;;;;;33.15;20.75;;;2.40;99.90;;;;;;4992937;28;20235;-87
2022/01/13 02:57:27;;;;;;;32.30;21.17;;;2.50;99.90;;;;;;4996984;28;20220;-88
2022/01/13 02:59:54;;;;;;;31.52;20.85;;;2.20;99.90;;;;;;4995876;28;20208;-89
2022/01/13 03:02:28;;;;;;;26.88;18.90;;;2.40;99.90;;;;;;4991347;28;20209;-89
2022/01/13 03:04:55;;;;;;;32.50;20.83;;;2.00;99.90;;;;;;4987457;28;20301;-90
2022/01/13 03:07:22;;;;;;;30.67;19.40;;;2.30;99.90;;;;;;4988018;28;20204;-89
2022/01/13 03:09:49;;;;;;;28.58;18.77;;;2.30;99.90;;;;;;4988197;28;20586;-90
2022/01/13 03:12:17;;;;;;;33.92;20.80;;;2.50;99.90;;;;;;4989624;28;20214;-90
2022/01/13 03:14:44;;;;;;;31.83;20.83;;;2.40;99.90;;;;;;4988766;28;20225;-89
2022/01/13 03:17:12;;;;;;;30.88;19.88;;;2.30;99.90;;;;;;4985736;28;20248;-89
2022/01/13 03:19:39;;;;;;;31.27;21.35;;;2.40;99.90;;;;;;4985527;28;20233;-88
2022/01/13 03:22:06;;;;;;;35.63;20.65;;;2.40;99.90;;;;;;4986281;28;20213;-87
2022/01/13 03:24:33;;;;;;;30.23;20.80;;;2.40;99.90;;;;;;4986006;28;20228;-89
2022/01/13 03:27:02;;;;;;;27.70;19.60;;;2.40;99.90;;;;;;4985612;28;20210;-90
2022/01/13 03:29:31;;;;;;;32.55;19.92;;;2.10;99.90;;;;;;4986088;28;20229;-89
2022/01/13 03:31:58;;;;;;;30.90;19.33;;;2.30;99.90;;;;;;4992783;28;20192;-88
2022/01/13 03:34:25;;;;;;;31.48;19.65;;;2.30;99.90;;;;;;4990094;28;20260;-90
2022/01/13 03:36:52;;;;;;;37.63;21.70;;;2.30;99.90;;;;;;4983961;28;20263;-87
2022/01/13 03:39:19;;;;;;;30.65;20.15;;;2.50;99.90;;;;;;4988806;28;20208;-87
2022/01/13 03:41:46;;;;;;;28.42;19.60;;;2.20;99.90;;;;;;4988396;28;20216;-89
2022/01/13 03:44:27;;;;;;;36.60;22.17;;;2.40;99.90;;;;;;4987487;28;20271;-89
2022/01/13 03:46:56;;;;;;;28.65;20.05;;;2.20;99.90;;;;;;4985494;28;20196;-88
2022/01/13 03:49:23;;;;;;;29.10;19.88;;;2.20;99.90;;;;;;4984646;28;20208;-88
2022/01/13 03:52:53;;;;;;;31.60;20.23;;;2.30;99.90;;;;;;4991361;28;20313;-89
2022/01/13 03:55:57;;;;;;;30.80;20.48;;;2.40;99.90;;;;;;4982474;28;20233;-87
2022/01/13 03:59:03;;;;;;;26.88;18.77;;;2.40;99.90;;;;;;4988496;28;20250;-89
2022/01/13 04:01:57;;;;;;;27.65;20.08;;;2.40;99.90;;;;;;4986703;28;20204;-89
2022/01/13 04:04:25;;;;;;;30.00;18.98;;;2.50;99.90;;;;;;4985355;28;20340;-87
2022/01/13 04:07:05;;;;;;;29.70;19.40;;;2.40;99.90;;;;;;4986857;28;20243;-88
2022/01/13 04:10:07;;;;;;;31.00;19.17;;;2.30;99.90;;;;;;4984362;28;20642;-89
2022/01/13 04:12:34;;;;;;;27.58;18.15;;;2.30;99.90;;;;;;4972163;28;20208;-89
2022/01/13 04:15:02;;;;;;;35.92;21.15;;;2.30;99.90;;;;;;4985110;28;20254;-88
2022/01/13 04:17:29;;;;;;;32.45;21.00;;;2.30;99.90;;;;;;4985324;28;20233;-89
2022/01/13 04:19:58;;;;;;;29.08;18.63;;;2.20;99.90;;;;;;4984468;28;20698;-89
2022/01/13 04:22:26;;;;;;;28.63;17.33;;;2.40;99.90;;;;;;4985380;28;20225;-89
2022/01/13 04:24:54;;;;;;;31.65;19.58;;;2.30;99.90;;;;;;4984077;28;20239;-89
2022/01/13 04:27:24;;;;;;;30.75;19.60;;;2.30;99.90;;;;;;4984259;28;20232;-89
2022/01/13 04:30:11;;;;;;;29.75;19.92;;;2.70;99.90;;;;;;4986174;28;20204;-90
2022/01/13 04:32:38;;;;;;;30.67;18.27;;;2.60;99.90;;;;;;4994845;28;20209;-88
2022/01/13 04:35:08;;;;;;;27.55;19.15;;;2.60;99.90;;;;;;4997926;28;20216;-88
2022/01/13 04:37:35;;;;;;;27.80;18.40;;;2.50;99.90;;;;;;4998640;28;20228;-87
2022/01/13 04:40:02;;;;;;;29.00;19.75;;;2.70;99.90;;;;;;4994373;28;20265;-89
2022/01/13 04:42:34;;;;;;;28.58;17.80;;;2.80;99.90;;;;;;4994403;28;20673;-89
2022/01/13 04:45:03;;;;;;;33.50;19.60;;;2.70;99.90;;;;;;4997219;28;20293;-89
2022/01/13 04:47:30;;;;;;;31.20;20.00;;;3.10;99.90;;;;;;4998135;28;20209;-88
2022/01/13 04:49:57;;;;;;;28.88;19.08;;;2.80;99.90;;;;;;4991057;28;20236;-89
2022/01/13 04:52:25;;;;;;;28.30;18.42;;;2.60;99.90;;;;;;4987378;28;20218;-89
2022/01/13 04:54:52;;;;;;;27.55;18.27;;;2.70;99.90;;;;;;4986342;28;20316;-89
2022/01/13 04:57:19;;;;;;;29.42;18.20;;;2.30;99.90;;;;;;4988041;28;20225;-89
2022/01/13 04:59:46;;;;;;;29.27;18.67;;;2.40;99.90;;;;;;4995752;28;20216;-86
2022/01/13 05:02:14;;;;;;;30.88;20.45;;;2.60;99.90;;;;;;4987809;28;20212;-89
2022/01/13 05:04:41;;;;;;;29.48;20.05;;;2.20;99.90;;;;;;4985831;28;20244;-90
2022/01/13 05:07:08;;;;;;;32.13;22.50;;;2.30;99.90;;;;;;4985538;28;20582;-89
2022/01/13 05:09:36;;;;;;;29.92;20.63;;;1.80;99.90;;;;;;4984707;28;20219;-89
2022/01/13 05:12:03;;;;;;;30.17;18.58;;;2.20;99.90;;;;;;4985111;28;20232;-88
2022/01/13 05:14:31;;;;;;;30.80;20.67;;;2.50;99.90;;;;;;4983827;28;20229;-89
2022/01/13 05:17:05;;;;;;;30.63;18.80;;;2.80;99.90;;;;;;4984682;28;20255;-90
2022/01/13 05:19:36;;;;;;;29.85;20.02;;;2.70;99.90;;;;;;4985881;28;20251;-89
2022/01/13 05:22:18;;;;;;;33.75;18.10;;;2.70;99.90;;;;;;4986340;28;20205;-90
2022/01/13 05:24:48;;;;;;;28.40;19.23;;;2.60;99.90;;;;;;4988689;28;20267;-89
2022/01/13 05:27:16;;;;;;;30.27;19.85;;;2.80;99.90;;;;;;4989179;28;20211;-89
2022/01/13 05:29:43;;;;;;;36.58;19.80;;;2.80;99.90;;;;;;4994311;28;20212;-89
2022/01/13 05:32:10;;;;;;;28.38;19.83;;;2.80;99.90;;;;;;4997523;28;20240;-89
2022/01/13 05:34:36;;;;;;;28.20;20.73;;;2.70;99.90;;;;;;4990648;28;20232;-89
2022/01/13 05:37:04;;;;;;;30.20;18.90;;;2.80;99.90;;;;;;4991550;28;20209;-88
2022/01/13 05:39:31;;;;;;;27.95;19.60;;;2.70;99.90;;;;;;5001256;28;20208;-87
2022/01/13 05:42:02;;;;;;;29.10;19.30;;;2.50;99.90;;;;;;5002085;28;20246;-88
2022/01/13 05:44:28;;;;;;;37.45;21.60;;;2.40;99.90;;;;;;4996815;28;20768;-90
2022/01/13 05:46:55;;;;;;;30.75;19.90;;;2.50;99.90;;;;;;5000036;28;20196;-88
2022/01/13 05:49:22;;;;;;;30.92;19.95;;;2.50;99.90;;;;;;4995773;28;20212;-88
2022/01/13 05:51:49;;;;;;;30.50;19.75;;;2.40;99.90;;;;;;4991133;28;20240;-89
2022/01/13 05:54:16;;;;;;;32.95;21.50;;;2.10;99.90;;;;;;4988876;28;20272;-89
2022/01/13 05:56:43;;;;;;;33.28;19.38;;;2.00;99.90;;;;;;4988790;28;20251;-88
2022/01/13 05:59:11;;;;;;;30.90;19.67;;;2.20;99.90;;;;;;4988677;28;20307;-89
2022/01/13 06:01:38;;;;;;;30.02;18.73;;;2.30;99.90;;;;;;4988780;28;20237;-88
2022/01/13 06:04:05;;;;;;;28.42;18.42;;;2.30;99.90;;;;;;4992524;28;20211;-89
2022/01/13 06:06:32;;;;;;;30.02;20.80;;;2.40;99.90;;;;;;4992827;28;20240;-89
2022/01/13 06:08:58;;;;;;;36.45;19.90;;;2.40;99.90;;;;;;4988742;28;20569;-87
2022/01/13 06:11:33;;;;;;;31.02;19.27;;;1.80;99.90;;;;;;4987656;28;20208;-88
2022/01/13 06:14:00;;;;;;;26.27;18.15;;;2.50;99.90;;;;;;4991083;28;20232;-87
2022/01/13 06:16:28;;;;;;;28.13;19.23;;;2.60;99.90;;;;;;4990276;28;20253;-89
2022/01/13 06:18:55;;;;;;;27.92;18.65;;;2.80;99.90;;;;;;4990075;28;20211;-90
2022/01/13 06:21:22;;;;;;;30.63;20.48;;;2.90;99.90;;;;;;4991507;28;20224;-89
2022/01/13 06:23:49;;;;;;;26.85;19.15;;;2.60;99.90;;;;;;4988851;28;20209;-89
2022/01/13 06:26:16;;;;;;;28.85;18.92;;;2.80;99.90;;;;;;4993281;28;20221;-89
2022/01/13 06:28:43;;;;;;;27.58;18.50;;;2.80;99.90;;;;;;4993117;28;20201;-90
2022/01/13 06:31:10;;;;;;;28.45;19.60;;;2.90;99.90;;;;;;4987684;28;20709;-90
2022/01/13 06:33:38;;;;;;;27.77;18.17;;;2.80;99.90;;;;;;4985353;28;20233;-88
2022/01/13 06:39:34;;;;;;;26.42;18.00;;;2.90;99.90;;;;;;4939282;28;20224;-87
2022/01/13 06:42:05;;;;;;;27.27;18.55;;;3.10;99.90;;;;;;4982794;28;20212;-87
2022/01/13 06:48:03;;;;;;;30.23;19.00;;;2.70;99.90;;;;;;4959709;29;20209;-88
2022/01/13 06:50:39;;;;;;;27.90;18.40;;;2.40;99.90;;;;;;4963837;29;20209;-87
2022/01/13 06:53:11;;;;;;;31.23;20.17;;;2.80;99.90;;;;;;4963985;29;20217;-87
2022/01/13 06:55:41;;;;;;;29.40;19.27;;;2.90;99.90;;;;;;4967406;29;20233;-86
2022/01/13 06:58:12;;;;;;;28.48;17.65;;;2.80;99.90;;;;;;4967136;29;20245;-87
2022/01/13 07:00:44;;;;;;;29.35;18.38;;;3.00;99.90;;;;;;4968231;29;20228;-88
2022/01/13 07:03:13;;;;;;;28.25;18.85;;;3.20;99.90;;;;;;4978444;29;20218;-87
2022/01/13 07:05:43;;;;;;;33.40;19.50;;;2.80;99.90;;;;;;4974580;29;20233;-88
2022/01/13 07:08:14;;;;;;;27.90;18.83;;;2.90;99.90;;;;;;4976092;28;20186;-87
2022/01/13 07:10:46;;;;;;;32.42;20.30;;;3.00;99.90;;;;;;4964019;29;20262;-87
2022/01/13 07:13:14;;;;;;;29.92;19.60;;;2.90;99.90;;;;;;4963107;29;20217;-87
2022/01/13 07:15:53;;;;;;;29.08;19.60;;;3.00;99.90;;;;;;4961468;29;20252;-87
2022/01/13 07:18:26;;;;;;;31.83;20.45;;;3.00;99.90;;;;;;4962215;29;20226;-87
2022/01/13 07:21:03;;;;;;;32.80;19.05;;;3.00;99.90;;;;;;4963836;29;20540;-88
2022/01/13 07:23:51;;;;;;;31.70;20.60;;;3.20;99.90;;;;;;4963161;29;20213;-86
2022/01/13 07:26:27;;;;;;;30.83;19.75;;;2.90;99.90;;;;;;4971510;29;20244;-87
2022/01/13 07:32:25;;;;;;;34.83;19.25;;;2.70;99.90;;;;;;4883525;29;20201;-87
2022/01/13 07:35:00;;;;;;;30.08;17.63;;;2.70;99.90;;;;;;4967536;29;20186;-87
2022/01/13 08:05:23;;;;;;;32.60;18.65;;;2.80;99.90;;;;;;4829056;29;20243;-84
2022/01/13 08:11:50;;;;;;;28.63;18.98;;;2.70;99.90;;;;;;4757690;30;20215;-89
2022/01/13 12:25:09;;;;;;;22.08;14.82;;;5.10;99.90;;;;;;4909021;29;20685;-88
2022/01/13 12:27:52;;;;;;;21.30;15.00;;;5.00;99.90;;;;;;4923806;29;20211;-89
2022/01/13 12:34:06;;;;;;;22.70;14.43;;;5.00;99.90;;;;;;4920925;29;20217;-87
2022/01/13 12:36:44;;;;;;;22.60;15.02;;;4.90;99.90;;;;;;4950054;23;20319;-88
2022/01/13 12:39:16;;;;;;;21.65;14.30;;;5.10;99.90;;;;;;4987415;28;20236;-88
2022/01/13 12:41:59;;;;;;;19.70;14.57;;;5.20;99.90;;;;;;4986778;28;20206;-86
2022/01/13 12:47:15;;;;;;;21.38;14.95;;;5.10;99.90;;;;;;4982910;28;20234;-88
2022/01/13 12:49:42;;;;;;;20.10;14.48;;;5.20;99.90;;;;;;4984087;28;20213;-89
2022/01/13 12:52:44;;;;;;;22.13;14.45;;;5.20;99.90;;;;;;4982929;28;20218;-88
2022/01/13 12:55:14;;;;;;;30.00;20.98;;;5.30;99.90;;;;;;4984321;28;20215;-89
2022/01/13 12:57:51;;;;;;;23.10;14.85;;;5.40;99.90;;;;;;4983232;28;20253;-90
2022/01/13 13:00:21;;;;;;;25.70;15.57;;;5.70;99.90;;;;;;4991339;28;20204;-89
2022/01/13 13:02:58;;;;;;;23.75;15.48;;;5.50;99.90;;;;;;4984412;28;20299;-88
2022/01/13 13:05:30;;;;;;;22.63;15.93;;;5.00;99.90;;;;;;4984602;28;20227;-88
2022/01/13 13:07:57;;;;;;;22.83;15.10;;;5.30;99.90;;;;;;4983766;28;20231;-88
2022/01/13 13:10:27;;;;;;;21.48;13.40;;;5.50;99.90;;;;;;4982536;28;20273;-88
2022/01/13 13:12:55;;;;;;;26.75;15.43;;;5.60;99.90;;;;;;4984676;28;20218;-90
2022/01/13 13:15:41;;;;;;;19.83;14.30;;;5.10;99.90;;;;;;4981286;28;20291;-89
2022/01/13 13:18:17;;;;;;;23.45;12.75;;;5.60;99.90;;;;;;4990794;28;20242;-88
2022/01/13 13:20:45;;;;;;;16.70;12.60;;;5.90;99.90;;;;;;4985443;28;20237;-88
2022/01/13 13:23:16;;;;;;;18.55;12.18;;;5.80;99.90;;;;;;4996249;28;20200;-87
2022/01/13 13:25:48;;;;;;;22.60;12.50;;;5.90;99.90;;;;;;4989280;28;20247;-89
2022/01/13 13:28:27;;;;;;;24.58;11.90;;;5.70;99.90;;;;;;4985298;28;20245;-88
2022/01/13 13:30:56;;;;;;;21.25;14.05;;;5.80;99.90;;;;;;4984256;28;20298;-89
2022/01/13 13:33:45;;;;;;;21.55;12.60;;;5.80;99.90;;;;;;4983553;28;20273;-88
2022/01/13 13:36:41;;;;;;;19.85;11.52;;;5.70;99.90;;;;;;4983069;28;20212;-88
2022/01/13 13:39:13;;;;;;;20.40;12.82;;;5.90;99.90;;;;;;4982052;28;20235;-90
2022/01/13 13:41:45;;;;;;;19.50;12.80;;;5.90;99.90;;;;;;4982109;28;20187;-88
2022/01/13 13:44:25;;;;;;;22.40;12.93;;;6.00;99.90;;;;;;4987447;28;20204;-88
2022/01/13 13:49:28;;;;;;;23.27;12.50;;;5.90;99.90;;;;;;3207253;26;20238;-88
2022/01/13 13:51:57;;;;;;;20.63;12.43;;;6.00;99.90;;;;;;4950634;28;20224;-89
2022/01/13 13:54:27;;;;;;;19.73;12.45;;;5.60;99.90;;;;;;4951711;29;20249;-90
2022/01/13 13:57:06;;;;;;;18.30;12.98;;;5.50;99.90;;;;;;4950889;29;20228;-89
2022/01/13 14:03:03;;;;;;;24.40;14.27;;;5.60;99.90;;;;;;4893828;29;20206;-89
2022/01/13 14:08:59;;;;;;;20.60;12.60;;;5.90;99.90;;;;;;4888118;29;20215;-89
2022/01/13 14:11:43;;;;;;;20.33;12.90;;;5.90;99.90;;;;;;4893147;29;20626;-88
2022/01/13 14:16:57;;;;;;;18.75;12.40;;;6.10;99.90;;;;;;4951721;29;20229;-89
2022/01/13 14:19:25;;;;;;;23.85;16.48;;;6.40;99.90;;;;;;4949757;29;20233;-87
2022/01/13 14:25:57;;;;;;;19.65;13.50;;;6.20;99.90;;;;;;4950729;29;20725;-89
2022/01/13 14:28:26;;;;;;;18.35;12.55;;;6.00;99.90;;;;;;4950872;29;20257;-90
2022/01/13 14:31:04;;;;;;;27.20;13.63;;;6.00;99.90;;;;;;4951503;29;20221;-88
2022/01/13 14:33:35;;;;;;;20.40;14.05;;;6.00;99.90;;;;;;4950660;29;20213;-89
2022/01/13 14:36:05;;;;;;;24.52;14.55;;;6.10;99.90;;;;;;4951679;29;20204;-90
2022/01/13 14:38:39;;;;;;;24.33;15.10;;;6.10;99.90;;;;;;4956572;29;20229;-89
2022/01/13 14:41:32;;;;;;;22.45;13.77;;;6.20;99.90;;;;;;4949368;29;20217;-90
2022/01/13 14:44:02;;;;;;;25.40;14.13;;;6.20;99.90;;;;;;4950787;29;20209;-89
2022/01/13 14:46:33;;;;;;;24.83;14.23;;;6.30;99.90;;;;;;4959344;29;20264;-88
2022/01/13 14:49:34;;;;;;;24.48;14.00;;;6.30;99.90;;;;;;4960627;29;20225;-88
2022/01/13 14:52:03;;;;;;;20.55;13.50;;;6.30;99.90;;;;;;4961149;29;20196;-86
2022/01/13 14:54:41;;;;;;;19.85;13.95;;;6.40;99.90;;;;;;4960298;29;20184;-88
2022/01/13 14:57:10;;;;;;;20.30;13.35;;;6.30;99.90;;;;;;4960798;29;20232;-89
2022/01/13 14:59:40;;;;;;;26.10;16.30;;;6.40;99.90;;;;;;4959919;29;20279;-90
2022/01/13 15:06:34;;;;;;;;;;;;;;;;;;;;;
2022/01/13 15:09:59;;;;;;;27.20;13.82;;;6.30;99.90;;;;;;5040920;23;20274;-88
2022/01/13 15:41:24;;;;;;;20.85;12.38;;;6.40;99.90;;;;;;4864449;29;20202;-89
2022/01/13 15:54:56;;;;;;;21.83;14.30;;;6.10;99.90;;;;;;4874973;29;20590;-90
2022/01/13 16:01:41;;;;;;;23.70;15.25;;;6.00;99.90;;;;;;4821992;29;20212;-89
2022/01/13 16:04:58;;;;;;;;;;;;;;;;;;;;;
2022/01/13 16:48:05;;;;;;;18.63;11.73;;;5.30;99.90;;;;;;4934530;23;20241;-88
2022/01/13 16:50:38;;;;;;;21.92;11.10;;;5.20;99.90;;;;;;4973748;28;20281;-88
2022/01/13 16:53:06;;;;;;;22.25;12.13;;;5.20;99.90;;;;;;4993912;28;20210;-90
2022/01/13 16:55:34;;;;;;;21.10;13.02;;;5.10;99.90;;;;;;4987048;28;20193;-90
2022/01/13 16:58:02;;;;;;;18.30;12.65;;;4.90;99.90;;;;;;4986764;28;20641;-89
2022/01/13 17:00:31;;;;;;;20.65;12.80;;;4.60;99.90;;;;;;4989236;28;20214;-89
2022/01/13 17:02:58;;;;;;;20.33;13.93;;;4.80;99.90;;;;;;4986324;28;20225;-89
2022/01/13 17:05:42;;;;;;;21.92;13.35;;;4.80;99.90;;;;;;4988124;28;20209;-89
2022/01/13 17:08:11;;;;;;;29.48;12.93;;;4.80;99.90;;;;;;4988083;28;20314;-88
2022/01/13 17:10:38;;;;;;;24.30;13.27;;;4.50;99.90;;;;;;4986538;28;20254;-88
2022/01/13 17:13:07;;;;;;;26.38;15.57;;;4.70;99.90;;;;;;4992438;28;20217;-88
2022/01/13 17:15:36;;;;;;;24.30;13.65;;;4.50;99.90;;;;;;4992601;28;20227;-87
2022/01/13 17:18:04;;;;;;;24.77;15.38;;;4.80;99.90;;;;;;4989193;28;20231;-87
2022/01/13 17:20:33;;;;;;;22.83;15.15;;;4.70;99.90;;;;;;4990625;28;20209;-88
2022/01/13 17:23:00;;;;;;;30.65;15.70;;;4.50;99.90;;;;;;4992238;28;20219;-90
2022/01/13 17:25:27;;;;;;;21.67;13.05;;;4.60;99.90;;;;;;4992227;28;20221;-89
2022/01/13 17:27:54;;;;;;;22.00;14.02;;;5.10;99.90;;;;;;4991385;28;20247;-88
2022/01/13 17:30:22;;;;;;;23.52;12.95;;;5.20;99.90;;;;;;4988662;28;20235;-89
2022/01/13 17:32:50;;;;;;;21.00;13.13;;;5.00;99.90;;;;;;4990991;28;20207;-88
2022/01/13 17:35:18;;;;;;;26.48;13.20;;;4.80;99.90;;;;;;4991992;28;20242;-90
2022/01/13 17:37:50;;;;;;;21.08;12.85;;;4.70;99.90;;;;;;4990967;28;20240;-89
2022/01/13 17:40:17;;;;;;;20.45;12.23;;;4.70;99.90;;;;;;4992203;28;20223;-89
2022/01/13 17:42:44;;;;;;;21.08;12.43;;;4.60;99.90;;;;;;4992481;28;20208;-90
2022/01/13 17:45:11;;;;;;;21.13;12.02;;;4.70;99.90;;;;;;4992157;28;20218;-89
2022/01/13 17:47:40;;;;;;;24.92;12.13;;;4.50;99.90;;;;;;4994905;28;20244;-89
2022/01/13 17:50:10;;;;;;;21.90;13.43;;;4.40;99.90;;;;;;4997143;28;20214;-89
2022/01/13 17:52:39;;;;;;;25.23;13.13;;;4.40;99.90;;;;;;5001339;28;20200;-90
2022/01/13 17:55:06;;;;;;;20.08;13.48;;;4.20;99.90;;;;;;5001599;28;20198;-90
2022/01/13 17:57:37;;;;;;;25.27;15.00;;;4.30;99.90;;;;;;4993325;28;20254;-89
2022/01/13 18:00:05;;;;;;;26.00;13.73;;;3.70;99.90;;;;;;4994002;28;20217;-90
2022/01/13 18:02:40;;;;;;;23.88;12.30;;;4.10;99.90;;;;;;4997802;28;20294;-89
2022/01/13 18:06:03;;;;;;;22.08;14.70;;;4.10;99.90;;;;;;4995006;28;20220;-92
2022/01/13 18:08:32;;;;;;;22.15;13.07;;;4.10;99.90;;;;;;4935833;29;20241;-90
2022/01/13 18:13:46;;;;;;;20.92;12.60;;;4.00;99.90;;;;;;4982780;28;20232;-91
2022/01/13 18:16:14;;;;;;;32.55;16.33;;;3.90;99.90;;;;;;4998376;28;20204;-90
2022/01/13 18:18:42;;;;;;;25.75;14.00;;;3.90;99.90;;;;;;4993410;28;20234;-90
2022/01/13 18:21:10;;;;;;;23.38;13.48;;;3.90;99.90;;;;;;4998769;28;20214;-90
2022/01/13 18:23:38;;;;;;;21.27;14.10;;;3.50;99.90;;;;;;4991925;28;20241;-90
2022/01/13 18:26:06;;;;;;;22.85;14.40;;;3.80;99.90;;;;;;4990536;28;20281;-90
2022/01/13 18:28:34;;;;;;;26.63;16.70;;;3.80;99.90;;;;;;4990643;28;20232;-90
2022/01/13 18:33:53;;;;;;;26.58;15.70;;;4.00;99.90;;;;;;4989129;28;20201;-89
2022/01/13 18:36:21;;;;;;;23.60;14.43;;;3.70;99.90;;;;;;4989013;28;20240;-89
2022/01/13 19:08:06;;;;;;;;;;;;;;;;;;;;;
2022/01/13 19:21:27;;;;;;;21.00;13.68;;;3.70;99.90;;;;;;4828576;29;20293;-89
2022/01/13 19:23:55;;;;;;;25.13;13.50;;;3.70;99.90;;;;;;4951151;28;20226;-89
2022/01/13 19:26:23;;;;;;;19.15;11.48;;;3.70;99.90;;;;;;4991529;28;20267;-90
2022/01/13 19:29:20;;;;;;;20.67;13.70;;;3.40;99.90;;;;;;4984034;28;20291;-91
2022/01/13 19:32:00;;;;;;;19.85;13.40;;;3.60;99.90;;;;;;4985351;28;20272;-90
2022/01/13 19:34:27;;;;;;;21.65;13.13;;;3.70;99.90;;;;;;4989586;28;20193;-89
2022/01/13 19:37:17;;;;;;;;;;;;;;;;;;;;;
2022/01/13 19:39:45;;;;;;;26.15;16.35;;;3.60;99.90;;;;;;4998124;28;20216;-89
2022/01/13 19:42:31;;;;;;;24.40;16.25;;;3.60;99.90;;;;;;4994340;28;20201;-91
2022/01/13 19:45:51;;;;;;;24.42;17.00;;;3.70;99.90;;;;;;4983295;28;20232;-89
2022/01/13 19:48:18;;;;;;;25.67;15.85;;;3.10;99.90;;;;;;4987748;28;20247;-89
2022/01/13 19:50:52;;;;;;;25.45;16.40;;;3.40;99.90;;;;;;4998546;28;20221;-89
2022/01/13 19:54:12;;;;;;;25.70;16.00;;;3.50;99.90;;;;;;4997981;28;20197;-90
2022/01/13 19:56:52;;;;;;;24.02;16.05;;;3.40;99.90;;;;;;4943663;29;20214;-90
2022/01/13 19:59:26;;;;;;;26.17;15.00;;;3.40;99.90;;;;;;4946759;29;20735;-89
2022/01/13 20:05:10;;;;;;;23.05;14.63;;;3.40;99.90;;;;;;4972053;28;20260;-90
2022/01/13 20:07:38;;;;;;;21.63;14.77;;;3.40;99.90;;;;;;4982920;28;20296;-90
2022/01/13 20:14:03;;;;;;;22.63;14.23;;;3.30;99.90;;;;;;4968495;28;20216;-90
2022/01/13 20:16:53;;;;;;;22.35;14.00;;;3.30;99.90;;;;;;4982743;28;20216;-90
2022/01/13 20:20:01;;;;;;;20.73;13.90;;;3.30;99.90;;;;;;4991755;28;20221;-90
2022/01/13 20:22:38;;;;;;;23.83;15.07;;;3.30;99.90;;;;;;4995896;28;20268;-89
2022/01/13 20:25:12;;;;;;;25.35;16.25;;;3.30;99.90;;;;;;4991721;28;20220;-90
2022/01/13 20:27:41;;;;;;;28.75;16.70;;;3.30;99.90;;;;;;4987409;28;20284;-89
2022/01/13 20:30:16;;;;;;;25.63;15.45;;;3.30;99.90;;;;;;4983707;28;20293;-89
2022/01/13 20:36:33;;;;;;;27.27;17.98;;;3.10;99.90;;;;;;4926011;29;20214;-90
2022/01/13 20:39:23;;;;;;;24.13;15.32;;;3.10;99.90;;;;;;4976801;28;20320;-90
2022/01/13 20:41:50;;;;;;;26.35;16.20;;;2.70;99.90;;;;;;4983599;28;20197;-90
2022/01/13 20:44:32;;;;;;;24.60;16.38;;;2.70;99.90;;;;;;4981846;28;20284;-89
2022/01/13 20:47:08;;;;;;;31.95;19.33;;;3.10;99.90;;;;;;4984890;28;20204;-90
2022/01/13 20:49:41;;;;;;;28.52;17.25;;;3.10;99.90;;;;;;4987020;28;20220;-90
2022/01/13 20:52:32;;;;;;;27.33;16.33;;;3.00;99.90;;;;;;4994188;28;20215;-91
2022/01/13 20:58:38;;;;;;;22.10;14.82;;;3.20;99.90;;;;;;5167265;23;20240;-90
2022/01/13 21:12:23;;;;;;;22.77;15.20;;;3.10;99.90;;;;;;4787376;29;20207;-89
2022/01/13 21:17:36;;;;;;;24.63;15.70;;;3.10;99.90;;;;;;4958682;23;20240;-89
2022/01/13 21:20:07;;;;;;;27.17;16.50;;;3.00;99.90;;;;;;4983534;28;20284;-88
2022/01/13 21:22:35;;;;;;;26.90;16.00;;;3.20;99.90;;;;;;4990111;28;20221;-88
2022/01/13 21:25:11;;;;;;;22.23;15.75;;;2.70;99.90;;;;;;4985443;28;20217;-91
2022/01/13 21:27:43;;;;;;;24.77;16.38;;;2.80;99.90;;;;;;4987171;28;20255;-90
2022/01/13 21:30:14;;;;;;;27.42;16.88;;;3.00;99.90;;;;;;4988997;28;20302;-90
2022/01/13 21:36:13;;;;;;;23.65;15.90;;;3.10;99.90;;;;;;4923903;28;20210;-90
2022/01/13 21:38:45;;;;;;;24.83;16.58;;;3.10;99.90;;;;;;4997883;28;20229;-90
2022/01/13 22:22:07;;;;;;;26.17;15.73;;;2.90;99.90;;;;;;4817200;29;20248;-90
2022/01/13 22:35:44;;;;;;;;;;;;;;;;;;;;;
2022/01/13 22:42:07;;;;;;;25.98;15.15;;;2.90;99.90;;;;;;4939136;29;20332;-90
2022/01/13 22:48:10;;;;;;;24.52;15.55;;;2.80;99.90;;;;;;5058847;23;20240;-89